sensor_id;sensor_type;location;lat;lon;timestamp;temperature;humidity
17715;DHT22;8977;50.902;4.314;2024-02-28T00:00:42;9.40;99.90
17715;DHT22;8977;50.902;4.314;2024-02-28T00:03:09;9.30;99.90
17715;DHT22;8977;50.902;4.314;2024-02-28T00:05:36;9.30;99.90
17715;DHT22;8977;50.902;4.314;2024-02-28T00:08:04;9.30;99.90
17715;DHT22;8977;50.902;4.314;2024-02-28T00:10:32;9.30;99.90
17715;DHT22;8977;50.902;4.314;2024-02-28T00:12:59;9.30;99.90
17715;DHT22;8977;50.902;4.314;2024-02-28T00:15:26;9.20;99.90
17715;DHT22;8977;50.902;4.314;2024-02-28T00:17:55;9.20;99.90
17715;DHT22;8977;50.902;4.314;2024-02-28T00:20:23;9.20;99.90
17715;DHT22;8977;50.902;4.314;2024-02-28T00:22:52;9.20;99.90
17715;DHT22;8977;50.902;4.314;2024-02-28T00:25:19;9.20;99.90
17715;DHT22;8977;50.902;4.314;2024-02-28T00:27:46;9.20;99.90
17715;DHT22;8977;50.902;4.314;2024-02-28T00:30:13;9.20;99.90
17715;DHT22;8977;50.902;4.314;2024-02-28T00:32:40;9.20;99.90
17715;DHT22;8977;50.902;4.314;2024-02-28T00:35:08;9.10;99.90
17715;DHT22;8977;50.902;4.314;2024-02-28T00:37:35;9.10;99.90
17715;DHT22;8977;50.902;4.314;2024-02-28T00:40:02;9.20;99.90
17715;DHT22;8977;50.902;4.314;2024-02-28T00:42:29;9.10;99.90
17715;DHT22;8977;50.902;4.314;2024-02-28T00:44:56;9.10;99.90
17715;DHT22;8977;50.902;4.314;2024-02-28T00:47:23;9.10;99.90
17715;DHT22;8977;50.902;4.314;2024-02-28T00:49:51;9.10;99.90
17715;DHT22;8977;50.902;4.314;2024-02-28T00:52:19;9.10;99.90
17715;DHT22;8977;50.902;4.314;2024-02-28T00:54:46;9.00;99.90
17715;DHT22;8977;50.902;4.314;2024-02-28T00:57:13;9.00;99.90
17715;DHT22;8977;50.902;4.314;2024-02-28T00:59:40;9.00;99.90
17715;DHT22;8977;50.902;4.314;2024-02-28T01:02:08;9.00;99.90
17715;DHT22;8977;50.902;4.314;2024-02-28T01:04:35;9.00;99.90
17715;DHT22;8977;50.902;4.314;2024-02-28T01:07:02;9.00;99.90
17715;DHT22;8977;50.902;4.314;2024-02-28T01:09:30;9.00;99.90
17715;DHT22;8977;50.902;4.314;2024-02-28T01:11:57;9.00;99.90
17715;DHT22;8977;50.902;4.314;2024-02-28T01:14:24;9.00;99.90
17715;DHT22;8977;50.902;4.314;2024-02-28T01:16:50;9.00;99.90
17715;DHT22;8977;50.902;4.314;2024-02-28T01:19:17;9.00;99.90
17715;DHT22;8977;50.902;4.314;2024-02-28T01:21:44;9.00;99.90
17715;DHT22;8977;50.902;4.314;2024-02-28T01:24:11;9.00;99.90
17715;DHT22;8977;50.902;4.314;2024-02-28T01:26:39;9.00;99.90
17715;DHT22;8977;50.902;4.314;2024-02-28T01:29:07;9.10;99.90
17715;DHT22;8977;50.902;4.314;2024-02-28T01:31:33;9.10;99.90
17715;DHT22;8977;50.902;4.314;2024-02-28T01:34:00;9.10;99.90
17715;DHT22;8977;50.902;4.314;2024-02-28T01:36:27;9.10;99.90
17715;DHT22;8977;50.902;4.314;2024-02-28T01:38:54;9.20;99.90
17715;DHT22;8977;50.902;4.314;2024-02-28T01:41:21;9.20;99.90
17715;DHT22;8977;50.902;4.314;2024-02-28T01:43:49;9.20;99.90
17715;DHT22;8977;50.902;4.314;2024-02-28T01:46:22;9.20;99.90
17715;DHT22;8977;50.902;4.314;2024-02-28T01:48:50;9.20;99.90
17715;DHT22;8977;50.902;4.314;2024-02-28T01:51:17;9.20;99.90
17715;DHT22;8977;50.902;4.314;2024-02-28T01:53:45;9.10;99.90
17715;DHT22;8977;50.902;4.314;2024-02-28T01:56:12;9.10;99.90
17715;DHT22;8977;50.902;4.314;2024-02-28T01:58:43;9.10;99.90
17715;DHT22;8977;50.902;4.314;2024-02-28T02:01:12;9.10;99.90
17715;DHT22;8977;50.902;4.314;2024-02-28T02:03:40;9.10;99.90
17715;DHT22;8977;50.902;4.314;2024-02-28T02:06:07;9.10;99.90
17715;DHT22;8977;50.902;4.314;2024-02-28T02:08:34;9.10;99.90
17715;DHT22;8977;50.902;4.314;2024-02-28T02:11:01;9.20;99.90
17715;DHT22;8977;50.902;4.314;2024-02-28T02:13:28;9.00;99.90
17715;DHT22;8977;50.902;4.314;2024-02-28T02:15:55;9.00;99.90
17715;DHT22;8977;50.902;4.314;2024-02-28T02:18:23;9.10;99.90
17715;DHT22;8977;50.902;4.314;2024-02-28T02:20:54;9.00;99.90
17715;DHT22;8977;50.902;4.314;2024-02-28T02:23:26;9.00;99.90
17715;DHT22;8977;50.902;4.314;2024-02-28T02:25:53;9.00;99.90
17715;DHT22;8977;50.902;4.314;2024-02-28T02:28:20;9.00;99.90
17715;DHT22;8977;50.902;4.314;2024-02-28T02:30:47;9.00;99.90
17715;DHT22;8977;50.902;4.314;2024-02-28T02:33:14;9.00;99.90
17715;DHT22;8977;50.902;4.314;2024-02-28T02:35:41;9.00;99.90
17715;DHT22;8977;50.902;4.314;2024-02-28T02:38:08;9.00;99.90
17715;DHT22;8977;50.902;4.314;2024-02-28T02:40:36;8.90;99.90
17715;DHT22;8977;50.902;4.314;2024-02-28T02:43:03;9.00;99.90
17715;DHT22;8977;50.902;4.314;2024-02-28T02:45:30;8.90;99.90
17715;DHT22;8977;50.902;4.314;2024-02-28T02:47:57;8.90;99.90
17715;DHT22;8977;50.902;4.314;2024-02-28T02:50:23;8.90;99.90
17715;DHT22;8977;50.902;4.314;2024-02-28T02:52:50;8.90;99.90
17715;DHT22;8977;50.902;4.314;2024-02-28T02:55:17;8.90;99.90
17715;DHT22;8977;50.902;4.314;2024-02-28T02:57:45;8.90;99.90
17715;DHT22;8977;50.902;4.314;2024-02-28T03:00:12;8.90;99.90
17715;DHT22;8977;50.902;4.314;2024-02-28T03:02:39;8.90;99.90
17715;DHT22;8977;50.902;4.314;2024-02-28T03:05:07;8.90;99.90
17715;DHT22;8977;50.902;4.314;2024-02-28T03:07:34;8.90;99.90
17715;DHT22;8977;50.902;4.314;2024-02-28T03:10:01;8.80;99.90
17715;DHT22;8977;50.902;4.314;2024-02-28T03:12:28;8.90;99.90
17715;DHT22;8977;50.902;4.314;2024-02-28T03:14:57;8.90;99.90
17715;DHT22;8977;50.902;4.314;2024-02-28T03:17:24;8.90;99.90
17715;DHT22;8977;50.902;4.314;2024-02-28T03:19:51;8.80;99.90
17715;DHT22;8977;50.902;4.314;2024-02-28T03:22:18;8.80;99.90
17715;DHT22;8977;50.902;4.314;2024-02-28T03:24:44;8.80;99.90
17715;DHT22;8977;50.902;4.314;2024-02-28T03:27:11;8.80;99.90
17715;DHT22;8977;50.902;4.314;2024-02-28T03:29:38;8.80;99.90
17715;DHT22;8977;50.902;4.314;2024-02-28T03:32:07;8.80;99.90
17715;DHT22;8977;50.902;4.314;2024-02-28T03:34:34;8.80;99.90
17715;DHT22;8977;50.902;4.314;2024-02-28T03:37:00;8.80;99.90
17715;DHT22;8977;50.902;4.314;2024-02-28T03:39:27;8.90;99.90
17715;DHT22;8977;50.902;4.314;2024-02-28T03:41:54;8.90;99.90
17715;DHT22;8977;50.902;4.314;2024-02-28T03:44:22;8.90;99.90
17715;DHT22;8977;50.902;4.314;2024-02-28T03:46:49;8.90;99.90
17715;DHT22;8977;50.902;4.314;2024-02-28T03:49:17;8.80;99.90
17715;DHT22;8977;50.902;4.314;2024-02-28T03:51:44;8.80;99.90
17715;DHT22;8977;50.902;4.314;2024-02-28T03:54:11;8.80;99.90
17715;DHT22;8977;50.902;4.314;2024-02-28T03:56:38;8.80;99.90
17715;DHT22;8977;50.902;4.314;2024-02-28T03:59:04;8.80;99.90
17715;DHT22;8977;50.902;4.314;2024-02-28T04:01:31;8.80;99.90
17715;DHT22;8977;50.902;4.314;2024-02-28T04:03:58;8.80;99.90
17715;DHT22;8977;50.902;4.314;2024-02-28T04:06:26;8.80;99.90
17715;DHT22;8977;50.902;4.314;2024-02-28T04:08:54;8.80;99.90
17715;DHT22;8977;50.902;4.314;2024-02-28T04:11:21;8.80;99.90
17715;DHT22;8977;50.902;4.314;2024-02-28T04:13:48;8.80;99.90
17715;DHT22;8977;50.902;4.314;2024-02-28T04:16:15;8.80;99.90
17715;DHT22;8977;50.902;4.314;2024-02-28T04:18:42;8.80;99.90
17715;DHT22;8977;50.902;4.314;2024-02-28T04:21:08;8.80;99.90
17715;DHT22;8977;50.902;4.314;2024-02-28T04:23:37;8.80;99.90
17715;DHT22;8977;50.902;4.314;2024-02-28T04:26:04;8.80;99.90
17715;DHT22;8977;50.902;4.314;2024-02-28T04:28:31;8.70;99.90
17715;DHT22;8977;50.902;4.314;2024-02-28T04:30:58;8.80;99.90
17715;DHT22;8977;50.902;4.314;2024-02-28T04:33:25;8.80;99.90
17715;DHT22;8977;50.902;4.314;2024-02-28T04:35:52;8.80;99.90
17715;DHT22;8977;50.902;4.314;2024-02-28T04:38:19;8.80;99.90
17715;DHT22;8977;50.902;4.314;2024-02-28T04:40:47;8.70;99.90
17715;DHT22;8977;50.902;4.314;2024-02-28T04:43:15;8.80;99.90
17715;DHT22;8977;50.902;4.314;2024-02-28T04:45:43;8.70;99.90
17715;DHT22;8977;50.902;4.314;2024-02-28T04:48:09;8.80;99.90
17715;DHT22;8977;50.902;4.314;2024-02-28T04:50:36;8.70;99.90
17715;DHT22;8977;50.902;4.314;2024-02-28T04:53:03;8.70;99.90
17715;DHT22;8977;50.902;4.314;2024-02-28T04:55:31;8.80;99.90
17715;DHT22;8977;50.902;4.314;2024-02-28T04:57:59;8.80;99.90
17715;DHT22;8977;50.902;4.314;2024-02-28T05:00:26;8.70;99.90
17715;DHT22;8977;50.902;4.314;2024-02-28T05:02:53;8.70;99.90
17715;DHT22;8977;50.902;4.314;2024-02-28T05:05:20;8.70;99.90
17715;DHT22;8977;50.902;4.314;2024-02-28T05:07:46;8.70;99.90
17715;DHT22;8977;50.902;4.314;2024-02-28T05:10:13;8.70;99.90
17715;DHT22;8977;50.902;4.314;2024-02-28T05:12:40;8.70;99.90
17715;DHT22;8977;50.902;4.314;2024-02-28T05:15:10;8.70;99.90
17715;DHT22;8977;50.902;4.314;2024-02-28T05:17:37;8.70;99.90
17715;DHT22;8977;50.902;4.314;2024-02-28T05:20:04;8.70;99.90
17715;DHT22;8977;50.902;4.314;2024-02-28T05:22:32;8.70;99.90
17715;DHT22;8977;50.902;4.314;2024-02-28T05:24:58;8.60;99.90
17715;DHT22;8977;50.902;4.314;2024-02-28T05:27:25;8.60;99.90
17715;DHT22;8977;50.902;4.314;2024-02-28T05:29:53;8.70;99.90
17715;DHT22;8977;50.902;4.314;2024-02-28T05:32:20;8.60;99.90
17715;DHT22;8977;50.902;4.314;2024-02-28T05:34:48;8.60;99.90
17715;DHT22;8977;50.902;4.314;2024-02-28T05:37:16;8.60;99.90
17715;DHT22;8977;50.902;4.314;2024-02-28T05:39:43;8.60;99.90
17715;DHT22;8977;50.902;4.314;2024-02-28T05:42:10;8.60;99.90
17715;DHT22;8977;50.902;4.314;2024-02-28T05:44:37;8.60;99.90
17715;DHT22;8977;50.902;4.314;2024-02-28T05:47:04;8.60;99.90
17715;DHT22;8977;50.902;4.314;2024-02-28T05:49:33;8.60;99.90
17715;DHT22;8977;50.902;4.314;2024-02-28T05:52:00;8.60;99.90
17715;DHT22;8977;50.902;4.314;2024-02-28T05:54:26;8.70;99.90
17715;DHT22;8977;50.902;4.314;2024-02-28T05:56:53;8.70;99.90
17715;DHT22;8977;50.902;4.314;2024-02-28T05:59:20;8.70;99.90
17715;DHT22;8977;50.902;4.314;2024-02-28T06:01:47;8.70;99.90
17715;DHT22;8977;50.902;4.314;2024-02-28T06:04:14;8.70;99.90
17715;DHT22;8977;50.902;4.314;2024-02-28T06:06:42;8.70;99.90
17715;DHT22;8977;50.902;4.314;2024-02-28T06:09:09;8.70;99.90
17715;DHT22;8977;50.902;4.314;2024-02-28T06:11:36;8.70;99.90
17715;DHT22;8977;50.902;4.314;2024-02-28T06:14:03;8.70;99.90
17715;DHT22;8977;50.902;4.314;2024-02-28T06:16:30;8.70;99.90
17715;DHT22;8977;50.902;4.314;2024-02-28T06:18:56;8.70;99.90
17715;DHT22;8977;50.902;4.314;2024-02-28T06:21:23;8.70;99.90
17715;DHT22;8977;50.902;4.314;2024-02-28T06:23:52;8.60;99.90
17715;DHT22;8977;50.902;4.314;2024-02-28T06:26:18;8.70;99.90
17715;DHT22;8977;50.902;4.314;2024-02-28T06:28:46;8.80;99.90
17715;DHT22;8977;50.902;4.314;2024-02-28T06:31:14;8.80;99.90
17715;DHT22;8977;50.902;4.314;2024-02-28T06:33:41;8.80;99.90
17715;DHT22;8977;50.902;4.314;2024-02-28T06:36:08;8.70;99.90
17715;DHT22;8977;50.902;4.314;2024-02-28T06:38:35;8.80;99.90
17715;DHT22;8977;50.902;4.314;2024-02-28T06:41:04;8.80;99.90
17715;DHT22;8977;50.902;4.314;2024-02-28T06:43:33;8.80;99.90
17715;DHT22;8977;50.902;4.314;2024-02-28T06:46:00;8.80;99.90
17715;DHT22;8977;50.902;4.314;2024-02-28T06:48:27;8.90;99.90
17715;DHT22;8977;50.902;4.314;2024-02-28T06:50:54;8.90;99.90
17715;DHT22;8977;50.902;4.314;2024-02-28T06:53:21;8.90;99.90
17715;DHT22;8977;50.902;4.314;2024-02-28T06:55:48;8.90;99.90
17715;DHT22;8977;50.902;4.314;2024-02-28T06:58:16;8.90;99.90
17715;DHT22;8977;50.902;4.314;2024-02-28T07:00:43;8.90;99.90
17715;DHT22;8977;50.902;4.314;2024-02-28T07:03:10;8.90;99.90
17715;DHT22;8977;50.902;4.314;2024-02-28T07:05:37;9.00;99.90
17715;DHT22;8977;50.902;4.314;2024-02-28T07:08:04;9.00;99.90
17715;DHT22;8977;50.902;4.314;2024-02-28T07:10:31;9.00;99.90
17715;DHT22;8977;50.902;4.314;2024-02-28T07:12:58;9.00;99.90
17715;DHT22;8977;50.902;4.314;2024-02-28T07:15:26;9.00;99.90
17715;DHT22;8977;50.902;4.314;2024-02-28T07:17:53;9.10;99.90
17715;DHT22;8977;50.902;4.314;2024-02-28T07:20:20;9.10;99.90
17715;DHT22;8977;50.902;4.314;2024-02-28T07:22:46;9.10;99.90
17715;DHT22;8977;50.902;4.314;2024-02-28T07:25:13;9.10;99.90
17715;DHT22;8977;50.902;4.314;2024-02-28T07:27:40;9.20;99.90
17715;DHT22;8977;50.902;4.314;2024-02-28T07:30:08;9.20;99.90
17715;DHT22;8977;50.902;4.314;2024-02-28T07:32:36;9.20;99.90
17715;DHT22;8977;50.902;4.314;2024-02-28T07:35:03;9.20;99.90
17715;DHT22;8977;50.902;4.314;2024-02-28T07:37:30;9.20;99.90
17715;DHT22;8977;50.902;4.314;2024-02-28T07:39:57;9.30;99.90
17715;DHT22;8977;50.902;4.314;2024-02-28T07:42:24;9.30;99.90
17715;DHT22;8977;50.902;4.314;2024-02-28T07:44:50;9.30;99.90
17715;DHT22;8977;50.902;4.314;2024-02-28T07:47:22;9.30;99.90
17715;DHT22;8977;50.902;4.314;2024-02-28T07:49:50;9.30;99.90
17715;DHT22;8977;50.902;4.314;2024-02-28T07:52:17;9.30;99.90
17715;DHT22;8977;50.902;4.314;2024-02-28T07:54:44;9.30;99.90
17715;DHT22;8977;50.902;4.314;2024-02-28T07:57:11;9.30;99.90
17715;DHT22;8977;50.902;4.314;2024-02-28T07:59:39;9.30;99.90
17715;DHT22;8977;50.902;4.314;2024-02-28T08:02:08;9.30;99.90
17715;DHT22;8977;50.902;4.314;2024-02-28T08:04:35;9.40;99.90
17715;DHT22;8977;50.902;4.314;2024-02-28T08:07:03;9.40;99.90
17715;DHT22;8977;50.902;4.314;2024-02-28T08:09:30;9.40;99.90
17715;DHT22;8977;50.902;4.314;2024-02-28T08:11:57;9.40;99.90
17715;DHT22;8977;50.902;4.314;2024-02-28T08:14:24;9.40;99.90
17715;DHT22;8977;50.902;4.314;2024-02-28T08:16:51;9.40;99.90
17715;DHT22;8977;50.902;4.314;2024-02-28T08:19:18;9.40;99.90
17715;DHT22;8977;50.902;4.314;2024-02-28T08:21:45;9.40;99.90
17715;DHT22;8977;50.902;4.314;2024-02-28T08:24:13;9.40;99.90
17715;DHT22;8977;50.902;4.314;2024-02-28T08:26:40;9.50;99.90
17715;DHT22;8977;50.902;4.314;2024-02-28T08:29:07;9.50;99.90
17715;DHT22;8977;50.902;4.314;2024-02-28T08:31:40;9.60;99.90
17715;DHT22;8977;50.902;4.314;2024-02-28T08:34:07;9.50;99.90
17715;DHT22;8977;50.902;4.314;2024-02-28T08:36:34;9.60;99.90
17715;DHT22;8977;50.902;4.314;2024-02-28T08:39:02;9.60;99.90
17715;DHT22;8977;50.902;4.314;2024-02-28T08:41:33;9.60;99.90
17715;DHT22;8977;50.902;4.314;2024-02-28T08:43:59;9.60;99.90
17715;DHT22;8977;50.902;4.314;2024-02-28T08:46:26;9.60;99.90
17715;DHT22;8977;50.902;4.314;2024-02-28T08:48:53;9.60;99.90
17715;DHT22;8977;50.902;4.314;2024-02-28T08:51:20;9.60;99.90
17715;DHT22;8977;50.902;4.314;2024-02-28T08:53:47;9.70;99.90
17715;DHT22;8977;50.902;4.314;2024-02-28T08:56:14;9.70;99.90
17715;DHT22;8977;50.902;4.314;2024-02-28T08:58:42;9.60;99.90
17715;DHT22;8977;50.902;4.314;2024-02-28T09:01:13;9.60;99.90
17715;DHT22;8977;50.902;4.314;2024-02-28T09:03:40;9.70;99.90
17715;DHT22;8977;50.902;4.314;2024-02-28T09:06:07;9.60;99.90
17715;DHT22;8977;50.902;4.314;2024-02-28T09:08:34;9.60;99.90
17715;DHT22;8977;50.902;4.314;2024-02-28T09:11:01;9.70;99.90
17715;DHT22;8977;50.902;4.314;2024-02-28T09:13:30;9.70;99.90
17715;DHT22;8977;50.902;4.314;2024-02-28T09:15:58;9.70;99.90
17715;DHT22;8977;50.902;4.314;2024-02-28T09:18:25;9.60;99.90
17715;DHT22;8977;50.902;4.314;2024-02-28T09:20:51;9.60;99.90
17715;DHT22;8977;50.902;4.314;2024-02-28T09:23:18;9.70;99.90
17715;DHT22;8977;50.902;4.314;2024-02-28T09:25:45;9.70;99.90
17715;DHT22;8977;50.902;4.314;2024-02-28T09:28:12;9.60;99.90
17715;DHT22;8977;50.902;4.314;2024-02-28T09:30:41;9.70;99.90
17715;DHT22;8977;50.902;4.314;2024-02-28T09:33:09;9.70;99.90
17715;DHT22;8977;50.902;4.314;2024-02-28T09:35:37;9.70;99.90
17715;DHT22;8977;50.902;4.314;2024-02-28T09:38:04;9.80;99.90
17715;DHT22;8977;50.902;4.314;2024-02-28T09:40:31;9.70;99.90
17715;DHT22;8977;50.902;4.314;2024-02-28T09:43:01;9.80;99.90
17715;DHT22;8977;50.902;4.314;2024-02-28T09:45:29;9.80;99.90
17715;DHT22;8977;50.902;4.314;2024-02-28T09:47:58;9.80;99.90
17715;DHT22;8977;50.902;4.314;2024-02-28T09:50:27;9.90;99.90
17715;DHT22;8977;50.902;4.314;2024-02-28T09:52:54;9.90;99.90
17715;DHT22;8977;50.902;4.314;2024-02-28T09:55:21;9.90;99.90
17715;DHT22;8977;50.902;4.314;2024-02-28T09:57:48;10.00;99.90
17715;DHT22;8977;50.902;4.314;2024-02-28T10:00:20;10.00;99.90
17715;DHT22;8977;50.902;4.314;2024-02-28T10:02:47;10.10;99.90
17715;DHT22;8977;50.902;4.314;2024-02-28T10:05:15;10.10;99.90
17715;DHT22;8977;50.902;4.314;2024-02-28T10:07:45;10.10;99.90
17715;DHT22;8977;50.902;4.314;2024-02-28T10:10:12;10.10;99.90
17715;DHT22;8977;50.902;4.314;2024-02-28T10:12:41;10.10;99.90
17715;DHT22;8977;50.902;4.314;2024-02-28T10:15:10;10.10;99.90
17715;DHT22;8977;50.902;4.314;2024-02-28T10:17:37;10.20;99.90
17715;DHT22;8977;50.902;4.314;2024-02-28T10:20:05;10.20;99.90
17715;DHT22;8977;50.902;4.314;2024-02-28T10:22:35;10.20;99.90
17715;DHT22;8977;50.902;4.314;2024-02-28T10:25:04;10.30;99.90
17715;DHT22;8977;50.902;4.314;2024-02-28T10:27:34;10.20;99.90
17715;DHT22;8977;50.902;4.314;2024-02-28T10:30:01;10.30;99.90
17715;DHT22;8977;50.902;4.314;2024-02-28T10:32:30;10.30;99.90
17715;DHT22;8977;50.902;4.314;2024-02-28T10:34:58;10.40;99.90
17715;DHT22;8977;50.902;4.314;2024-02-28T10:37:26;10.40;99.90
17715;DHT22;8977;50.902;4.314;2024-02-28T10:39:57;10.30;99.90
17715;DHT22;8977;50.902;4.314;2024-02-28T10:42:29;10.30;99.90
17715;DHT22;8977;50.902;4.314;2024-02-28T10:44:57;10.30;99.90
17715;DHT22;8977;50.902;4.314;2024-02-28T10:47:25;10.50;99.90
17715;DHT22;8977;50.902;4.314;2024-02-28T10:49:53;10.40;99.90
17715;DHT22;8977;50.902;4.314;2024-02-28T10:52:21;10.30;99.90
17715;DHT22;8977;50.902;4.314;2024-02-28T10:54:53;10.30;99.90
17715;DHT22;8977;50.902;4.314;2024-02-28T10:57:22;10.40;99.90
17715;DHT22;8977;50.902;4.314;2024-02-28T10:59:52;10.40;99.90
17715;DHT22;8977;50.902;4.314;2024-02-28T11:02:20;10.30;99.90
17715;DHT22;8977;50.902;4.314;2024-02-28T11:04:47;10.40;99.90
17715;DHT22;8977;50.902;4.314;2024-02-28T11:07:19;10.40;99.90
17715;DHT22;8977;50.902;4.314;2024-02-28T11:09:47;10.50;99.90
17715;DHT22;8977;50.902;4.314;2024-02-28T11:12:24;10.50;99.90
17715;DHT22;8977;50.902;4.314;2024-02-28T11:14:58;10.50;99.90
17715;DHT22;8977;50.902;4.314;2024-02-28T11:17:26;10.50;99.90
17715;DHT22;8977;50.902;4.314;2024-02-28T11:19:53;10.60;99.90
17715;DHT22;8977;50.902;4.314;2024-02-28T11:22:20;10.60;99.90
17715;DHT22;8977;50.902;4.314;2024-02-28T11:24:48;10.60;99.90
17715;DHT22;8977;50.902;4.314;2024-02-28T11:27:15;10.70;99.90
17715;DHT22;8977;50.902;4.314;2024-02-28T11:29:42;10.80;99.90
17715;DHT22;8977;50.902;4.314;2024-02-28T11:32:12;10.70;99.90
17715;DHT22;8977;50.902;4.314;2024-02-28T11:34:40;10.90;99.90
17715;DHT22;8977;50.902;4.314;2024-02-28T11:37:08;10.90;99.90
17715;DHT22;8977;50.902;4.314;2024-02-28T11:39:35;10.90;99.90
17715;DHT22;8977;50.902;4.314;2024-02-28T11:42:10;10.90;99.90
17715;DHT22;8977;50.902;4.314;2024-02-28T11:44:38;11.00;99.90
17715;DHT22;8977;50.902;4.314;2024-02-28T11:47:07;10.90;99.90
17715;DHT22;8977;50.902;4.314;2024-02-28T11:49:36;10.90;99.90
17715;DHT22;8977;50.902;4.314;2024-02-28T11:52:03;11.00;99.90
17715;DHT22;8977;50.902;4.314;2024-02-28T11:54:30;11.00;99.90
17715;DHT22;8977;50.902;4.314;2024-02-28T11:56:57;11.10;99.90
17715;DHT22;8977;50.902;4.314;2024-02-28T11:59:24;11.10;99.90
17715;DHT22;8977;50.902;4.314;2024-02-28T12:01:52;11.10;99.90
17715;DHT22;8977;50.902;4.314;2024-02-28T12:04:23;11.10;99.90
17715;DHT22;8977;50.902;4.314;2024-02-28T12:06:51;11.10;99.90
17715;DHT22;8977;50.902;4.314;2024-02-28T12:09:18;11.10;99.90
17715;DHT22;8977;50.902;4.314;2024-02-28T12:11:46;11.20;99.90
17715;DHT22;8977;50.902;4.314;2024-02-28T12:14:13;11.20;99.90
17715;DHT22;8977;50.902;4.314;2024-02-28T12:16:40;11.10;99.90
17715;DHT22;8977;50.902;4.314;2024-02-28T12:19:08;11.10;99.90
17715;DHT22;8977;50.902;4.314;2024-02-28T12:21:35;11.10;99.90
17715;DHT22;8977;50.902;4.314;2024-02-28T12:24:04;11.10;99.90
17715;DHT22;8977;50.902;4.314;2024-02-28T12:26:31;11.20;99.90
17715;DHT22;8977;50.902;4.314;2024-02-28T12:28:58;11.30;99.90
17715;DHT22;8977;50.902;4.314;2024-02-28T12:31:27;11.30;99.90
17715;DHT22;8977;50.902;4.314;2024-02-28T12:33:54;11.40;99.90
17715;DHT22;8977;50.902;4.314;2024-02-28T12:36:21;11.40;99.90
17715;DHT22;8977;50.902;4.314;2024-02-28T12:38:48;11.40;99.90
17715;DHT22;8977;50.902;4.314;2024-02-28T12:41:16;11.40;99.90
17715;DHT22;8977;50.902;4.314;2024-02-28T12:43:43;11.40;99.90
17715;DHT22;8977;50.902;4.314;2024-02-28T12:46:10;11.40;99.90
17715;DHT22;8977;50.902;4.314;2024-02-28T12:48:37;11.50;99.90
17715;DHT22;8977;50.902;4.314;2024-02-28T12:51:05;11.50;99.90
17715;DHT22;8977;50.902;4.314;2024-02-28T12:53:31;11.40;99.90
17715;DHT22;8977;50.902;4.314;2024-02-28T12:55:58;11.40;99.90
17715;DHT22;8977;50.902;4.314;2024-02-28T12:58:26;11.50;99.90
17715;DHT22;8977;50.902;4.314;2024-02-28T13:00:54;11.40;99.90
17715;DHT22;8977;50.902;4.314;2024-02-28T13:03:20;11.50;99.90
17715;DHT22;8977;50.902;4.314;2024-02-28T13:05:47;11.40;99.90
17715;DHT22;8977;50.902;4.314;2024-02-28T13:08:14;11.40;99.90
17715;DHT22;8977;50.902;4.314;2024-02-28T13:10:41;11.40;99.90
17715;DHT22;8977;50.902;4.314;2024-02-28T13:13:09;11.40;99.90
17715;DHT22;8977;50.902;4.314;2024-02-28T13:15:39;11.40;99.90
17715;DHT22;8977;50.902;4.314;2024-02-28T13:18:06;11.40;99.90
17715;DHT22;8977;50.902;4.314;2024-02-28T13:20:36;11.50;99.90
17715;DHT22;8977;50.902;4.314;2024-02-28T13:23:03;11.40;99.90
17715;DHT22;8977;50.902;4.314;2024-02-28T13:25:30;11.40;99.90
17715;DHT22;8977;50.902;4.314;2024-02-28T13:27:57;11.40;99.90
17715;DHT22;8977;50.902;4.314;2024-02-28T13:30:24;11.40;99.90
17715;DHT22;8977;50.902;4.314;2024-02-28T13:32:52;11.40;99.90
17715;DHT22;8977;50.902;4.314;2024-02-28T13:35:19;11.50;99.90
17715;DHT22;8977;50.902;4.314;2024-02-28T13:37:46;11.50;99.90
17715;DHT22;8977;50.902;4.314;2024-02-28T13:40:13;11.40;99.90
17715;DHT22;8977;50.902;4.314;2024-02-28T13:42:39;11.40;99.90
17715;DHT22;8977;50.902;4.314;2024-02-28T13:45:07;11.60;99.90
17715;DHT22;8977;50.902;4.314;2024-02-28T13:47:35;11.50;99.90
17715;DHT22;8977;50.902;4.314;2024-02-28T13:50:03;11.60;99.90
17715;DHT22;8977;50.902;4.314;2024-02-28T13:52:30;11.60;99.90
17715;DHT22;8977;50.902;4.314;2024-02-28T13:54:57;11.80;99.90
17715;DHT22;8977;50.902;4.314;2024-02-28T13:57:24;11.70;99.90
17715;DHT22;8977;50.902;4.314;2024-02-28T13:59:51;11.70;99.90
17715;DHT22;8977;50.902;4.314;2024-02-28T14:02:20;11.60;99.90
17715;DHT22;8977;50.902;4.314;2024-02-28T14:04:46;11.60;99.90
17715;DHT22;8977;50.902;4.314;2024-02-28T14:07:16;11.60;99.90
17715;DHT22;8977;50.902;4.314;2024-02-28T14:09:43;11.60;99.90
17715;DHT22;8977;50.902;4.314;2024-02-28T14:12:11;11.70;99.90
17715;DHT22;8977;50.902;4.314;2024-02-28T14:14:38;11.60;99.90
17715;DHT22;8977;50.902;4.314;2024-02-28T14:17:06;11.60;99.90
17715;DHT22;8977;50.902;4.314;2024-02-28T14:19:32;11.70;99.90
17715;DHT22;8977;50.902;4.314;2024-02-28T14:22:01;11.70;99.90
17715;DHT22;8977;50.902;4.314;2024-02-28T14:24:29;11.70;99.90
17715;DHT22;8977;50.902;4.314;2024-02-28T14:26:56;11.70;99.90
17715;DHT22;8977;50.902;4.314;2024-02-28T14:29:22;11.70;99.90
17715;DHT22;8977;50.902;4.314;2024-02-28T14:31:49;11.70;99.90
17715;DHT22;8977;50.902;4.314;2024-02-28T14:34:16;11.70;99.90
17715;DHT22;8977;50.902;4.314;2024-02-28T14:36:43;11.80;99.90
17715;DHT22;8977;50.902;4.314;2024-02-28T14:39:10;11.90;99.90
17715;DHT22;8977;50.902;4.314;2024-02-28T14:41:42;11.80;99.90
17715;DHT22;8977;50.902;4.314;2024-02-28T14:44:09;11.80;99.90
17715;DHT22;8977;50.902;4.314;2024-02-28T14:46:36;11.70;99.90
17715;DHT22;8977;50.902;4.314;2024-02-28T14:49:03;11.70;99.90
17715;DHT22;8977;50.902;4.314;2024-02-28T14:51:30;11.80;99.90
17715;DHT22;8977;50.902;4.314;2024-02-28T14:53:58;11.80;99.90
17715;DHT22;8977;50.902;4.314;2024-02-28T14:56:25;11.70;99.90
17715;DHT22;8977;50.902;4.314;2024-02-28T14:58:54;11.90;99.90
17715;DHT22;8977;50.902;4.314;2024-02-28T15:01:22;11.90;99.90
17715;DHT22;8977;50.902;4.314;2024-02-28T15:03:50;11.80;99.90
17715;DHT22;8977;50.902;4.314;2024-02-28T15:06:17;11.80;99.90
17715;DHT22;8977;50.902;4.314;2024-02-28T15:08:44;11.70;99.90
17715;DHT22;8977;50.902;4.314;2024-02-28T15:11:11;11.70;99.90
17715;DHT22;8977;50.902;4.314;2024-02-28T15:13:38;11.70;99.90
17715;DHT22;8977;50.902;4.314;2024-02-28T15:16:06;11.80;99.90
17715;DHT22;8977;50.902;4.314;2024-02-28T15:18:33;11.80;99.90
17715;DHT22;8977;50.902;4.314;2024-02-28T15:21:00;11.80;99.90
17715;DHT22;8977;50.902;4.314;2024-02-28T15:23:27;11.80;99.90
17715;DHT22;8977;50.902;4.314;2024-02-28T15:25:54;11.80;99.90
17715;DHT22;8977;50.902;4.314;2024-02-28T15:28:21;11.80;99.90
17715;DHT22;8977;50.902;4.314;2024-02-28T15:30:49;11.80;99.90
17715;DHT22;8977;50.902;4.314;2024-02-28T15:33:17;11.80;99.90
17715;DHT22;8977;50.902;4.314;2024-02-28T15:35:44;11.90;99.90
17715;DHT22;8977;50.902;4.314;2024-02-28T15:38:12;11.80;99.90
17715;DHT22;8977;50.902;4.314;2024-02-28T15:40:39;11.70;99.90
17715;DHT22;8977;50.902;4.314;2024-02-28T15:43:06;11.80;99.90
17715;DHT22;8977;50.902;4.314;2024-02-28T15:45:33;11.80;99.90
17715;DHT22;8977;50.902;4.314;2024-02-28T15:48:00;11.80;99.90
17715;DHT22;8977;50.902;4.314;2024-02-28T15:50:29;11.90;99.90
17715;DHT22;8977;50.902;4.314;2024-02-28T15:52:56;11.90;99.90
17715;DHT22;8977;50.902;4.314;2024-02-28T15:55:23;11.80;99.90